createdAt,value
2023-03-26T00:00:32.932Z,5.28
2023-03-26T00:05:36.308Z,5.24
2023-03-26T00:10:41.544Z,5.20
2023-03-26T00:15:46.431Z,5.13
2023-03-26T00:20:49.978Z,4.98
2023-03-26T00:25:53.751Z,4.93
2023-03-26T00:31:04.066Z,4.77
2023-03-26T00:36:11.010Z,4.81
2023-03-26T00:41:23.156Z,4.79
2023-03-26T00:46:30.900Z,4.67
2023-03-26T00:51:35.163Z,4.73
2023-03-26T00:56:38.973Z,4.68
2023-03-26T01:01:44.947Z,4.63
2023-03-26T01:06:48.955Z,4.60
2023-03-26T01:11:52.488Z,4.60
2023-03-26T01:16:58.944Z,4.55
2023-03-26T01:22:02.826Z,4.56
2023-03-26T01:27:24.529Z,4.58
2023-03-26T01:32:44.223Z,4.50
2023-03-26T01:37:59.090Z,4.56
2023-03-26T01:43:10.499Z,4.46
2023-03-26T01:48:14.822Z,4.39
2023-03-26T01:53:18.329Z,4.44
2023-03-26T01:58:30.934Z,4.46
2023-03-26T02:03:40.498Z,4.49
2023-03-26T02:08:52.379Z,4.49
2023-03-26T02:13:57.721Z,4.57
2023-03-26T02:19:01.254Z,4.58
2023-03-26T02:24:04.697Z,4.47
2023-03-26T02:29:10.068Z,4.41
2023-03-26T02:34:13.423Z,4.31
2023-03-26T02:39:17.103Z,4.31
2023-03-26T02:44:22.013Z,4.28
2023-03-26T02:49:25.476Z,4.32
2023-03-26T02:54:28.857Z,4.33
2023-03-26T02:59:33.612Z,4.36
2023-03-26T03:04:36.960Z,4.43
2023-03-26T03:09:40.314Z,4.47
2023-03-26T03:14:45.379Z,4.50
2023-03-26T03:19:48.899Z,4.54
2023-03-26T03:24:53.206Z,4.53
2023-03-26T03:29:59.123Z,4.54
2023-03-26T03:35:02.408Z,4.57
2023-03-26T03:40:07.701Z,4.58
2023-03-26T03:45:13.385Z,4.65
2023-03-26T03:50:16.835Z,4.69
2023-03-26T03:55:20.674Z,4.78
2023-03-26T04:00:25.828Z,4.86
2023-03-26T04:05:29.268Z,4.93
2023-03-26T04:10:32.655Z,4.99
2023-03-26T04:15:37.816Z,5.05
2023-03-26T04:20:46.541Z,5.11
2023-03-26T04:25:54.055Z,5.19
2023-03-26T04:31:02.190Z,5.27
2023-03-26T04:36:06.526Z,5.39
2023-03-26T04:41:12.895Z,5.50
2023-03-26T04:46:21.846Z,5.60
2023-03-26T04:51:28.055Z,5.74
2023-03-26T04:56:40.230Z,5.85
2023-03-26T05:01:46.080Z,5.90
2023-03-26T05:06:49.720Z,5.95
2023-03-26T05:11:53.653Z,5.97
2023-03-26T05:16:58.567Z,6.09
2023-03-26T05:22:02.501Z,6.17
2023-03-26T05:27:05.903Z,6.21
2023-03-26T05:32:11.059Z,6.31
2023-03-26T05:37:14.407Z,6.33
2023-03-26T05:42:18.227Z,6.33
2023-03-26T05:47:23.247Z,6.33
2023-03-26T05:52:26.804Z,6.36
2023-03-26T05:57:31.231Z,6.42
2023-03-26T06:02:36.198Z,6.45
2023-03-26T06:07:39.928Z,6.48
2023-03-26T06:12:43.281Z,6.47
2023-03-26T06:17:48.893Z,6.35
2023-03-26T06:22:52.323Z,6.50
2023-03-26T06:27:55.592Z,6.47
2023-03-26T06:33:00.475Z,6.42
2023-03-26T06:38:04.165Z,6.27
2023-03-26T06:43:10.659Z,6.22
2023-03-26T06:48:16.307Z,6.42
2023-03-26T06:53:19.805Z,6.57
2023-03-26T06:58:25.141Z,6.76
2023-03-26T07:03:29.908Z,6.80
2023-03-26T07:08:33.508Z,6.81
2023-03-26T07:13:37.781Z,6.78
2023-03-26T07:18:42.729Z,6.87
2023-03-26T07:23:46.781Z,6.92
2023-03-26T07:29:03.978Z,6.98
2023-03-26T07:34:22.656Z,6.92
2023-03-26T07:39:42.323Z,6.86
2023-03-26T07:44:54.863Z,6.59
2023-03-26T07:50:21.908Z,6.73
2023-03-26T07:55:27.574Z,6.69
2023-03-26T08:00:36.585Z,6.71
2023-03-26T08:05:49.691Z,6.76
2023-03-26T08:11:04.613Z,6.75
2023-03-26T08:16:13.895Z,6.74
2023-03-26T08:21:21.764Z,6.77
2023-03-26T08:26:35.631Z,6.89
2023-03-26T08:31:41.576Z,7.01
2023-03-26T08:36:45.005Z,7.05
2023-03-26T08:42:28.004Z,7.11
2023-03-26T08:48:06.826Z,7.15
2023-03-26T08:53:48.619Z,7.04
2023-03-26T08:59:13.898Z,6.96
2023-03-26T09:04:39.699Z,7.06
2023-03-26T09:10:33.430Z,7.02
2023-03-26T09:16:06.915Z,7.42
2023-03-26T09:22:01.582Z,7.68
2023-03-26T09:27:17.378Z,7.86
2023-03-26T09:32:42.837Z,8.16
2023-03-26T09:37:58.302Z,8.22
2023-03-26T09:43:25.068Z,8.12
2023-03-26T09:48:54.203Z,7.91
2023-03-26T09:54:34.726Z,7.89
2023-03-26T10:00:11.145Z,7.81
2023-03-26T10:05:30.212Z,7.69
2023-03-26T10:10:41.070Z,7.54
2023-03-26T10:16:03.184Z,7.41
2023-03-26T10:21:13.556Z,7.28
2023-03-26T10:26:40.273Z,7.21
2023-03-26T10:31:49.017Z,7.18
2023-03-26T10:36:59.774Z,7.21
2023-03-26T10:42:17.704Z,7.29
2023-03-26T10:47:56.974Z,7.40
2023-03-26T10:53:10.422Z,7.50
2023-03-26T10:58:23.298Z,7.63
2023-03-26T11:03:45.160Z,7.80
2023-03-26T11:08:56.750Z,7.72
2023-03-26T11:14:09.927Z,7.66
2023-03-26T11:19:21.160Z,7.61
2023-03-26T11:24:45.028Z,7.56
2023-03-26T11:29:56.996Z,7.44
2023-03-26T11:35:04.317Z,7.28
2023-03-26T11:40:15.625Z,7.16
2023-03-26T11:45:23.125Z,7.09
2023-03-26T11:50:29.044Z,6.92
2023-03-26T11:55:34.725Z,6.96
2023-03-26T12:00:38.156Z,6.90
2023-03-26T12:05:50.124Z,6.88
2023-03-26T12:11:04.020Z,6.80
2023-03-26T12:16:13.534Z,6.71
2023-03-26T12:21:19.971Z,6.63
2023-03-26T12:26:37.306Z,6.45
2023-03-26T12:31:51.735Z,6.51
2023-03-26T12:36:57.305Z,6.43
2023-03-26T12:44:44.554Z,6.31
2023-03-26T12:47:58.862Z,6.36
2023-03-26T12:53:07.098Z,6.32
2023-03-26T12:58:55.215Z,6.24
2023-03-26T13:04:09.785Z,6.18
2023-03-26T13:09:37.929Z,6.10
2023-03-26T13:15:15.281Z,6.07
2023-03-26T13:20:26.643Z,6.00
2023-03-26T13:25:39.190Z,5.86
2023-03-26T13:30:50.573Z,5.97
2023-03-26T13:36:14.233Z,5.94
2023-03-26T13:41:33.690Z,5.92
2023-03-26T13:46:42.649Z,5.92
2023-03-26T13:51:49.782Z,5.93
2023-03-26T13:57:00.251Z,5.90
2023-03-26T14:02:10.920Z,5.88
2023-03-26T14:07:21.169Z,5.88
2023-03-26T14:12:49.431Z,5.84
2023-03-26T14:18:03.204Z,5.82
2023-03-26T14:23:24.243Z,5.82
2023-03-26T14:28:55.095Z,5.79
2023-03-26T14:34:25.691Z,5.79
2023-03-26T14:40:14.854Z,5.76
2023-03-26T14:45:43.333Z,5.74
2023-03-26T14:51:07.471Z,5.73
2023-03-26T14:56:50.062Z,5.67
2023-03-26T15:02:27.825Z,5.64
2023-03-26T15:08:11.046Z,5.62
2023-03-26T15:13:40.861Z,5.63
2023-03-26T15:19:28.846Z,5.59
2023-03-26T15:25:07.094Z,5.58
2023-03-26T15:31:03.685Z,5.59
2023-03-26T15:36:42.381Z,5.60
2023-03-26T15:41:56.999Z,5.60
2023-03-26T15:47:20.886Z,5.58
2023-03-26T15:52:33.141Z,5.56
2023-03-26T15:57:44.410Z,5.55
2023-03-26T16:03:09.301Z,5.55
2023-03-26T16:08:24.775Z,5.53
2023-03-26T16:13:37.893Z,5.50
2023-03-26T16:18:42.630Z,5.44
2023-03-26T16:23:57.924Z,5.48
2023-03-26T16:29:16.690Z,5.48
2023-03-26T16:34:28.992Z,5.48
2023-03-26T16:39:43.787Z,5.45
2023-03-26T16:44:56.309Z,5.47
2023-03-26T16:50:15.544Z,5.48
2023-03-26T16:55:28.443Z,5.48
2023-03-26T17:00:52.604Z,5.49
2023-03-26T17:06:06.211Z,5.52
2023-03-26T17:11:22.950Z,5.52
2023-03-26T17:16:33.976Z,5.51
2023-03-26T17:21:47.176Z,5.53
2023-03-26T17:27:00.579Z,5.44
2023-03-26T17:32:10.557Z,5.53
2023-03-26T17:37:32.779Z,5.52
2023-03-26T17:42:37.833Z,5.53
2023-03-26T17:47:46.845Z,5.53
2023-03-26T17:52:57.798Z,5.52
2023-03-26T17:58:03.125Z,5.48
2023-03-26T18:03:15.575Z,5.44
2023-03-26T18:08:42.834Z,5.41
2023-03-26T18:14:06.879Z,5.36
2023-03-26T18:19:19.409Z,5.36
2023-03-26T18:24:27.649Z,5.29
2023-03-26T18:29:33.835Z,5.34
2023-03-26T18:34:41.048Z,5.36
2023-03-26T18:39:57.348Z,5.34
2023-03-26T18:45:05.197Z,5.28
2023-03-26T18:50:17.333Z,5.33
2023-03-26T18:55:20.814Z,5.36
2023-03-26T19:00:27.853Z,5.28
2023-03-26T19:05:34.382Z,5.35
2023-03-26T19:10:38.665Z,5.28
2023-03-26T19:15:45.235Z,5.32
2023-03-26T19:20:52.942Z,5.34
2023-03-26T19:25:59.046Z,5.31
2023-03-26T19:31:09.788Z,5.32
2023-03-26T19:36:22.745Z,5.32
2023-03-26T19:41:31.500Z,5.32
2023-03-26T19:46:53.370Z,5.21
2023-03-26T19:52:12.676Z,5.29
2023-03-26T19:57:16.286Z,5.29
2023-03-26T20:02:19.926Z,5.28
2023-03-26T20:07:35.447Z,5.29
2023-03-26T20:12:39.743Z,5.28
2023-03-26T20:17:44.800Z,5.25
2023-03-26T20:22:49.660Z,5.21
2023-03-26T20:27:55.459Z,5.20
2023-03-26T20:33:12.984Z,5.19
2023-03-26T20:38:21.690Z,5.18
2023-03-26T20:43:28.869Z,5.15
2023-03-26T20:48:32.362Z,5.17
2023-03-26T20:53:37.297Z,5.14
2023-03-26T20:58:40.963Z,5.12
2023-03-26T21:03:46.186Z,5.07
2023-03-26T21:08:51.941Z,4.95
2023-03-26T21:14:02.376Z,4.86
2023-03-26T21:19:06.206Z,4.79
2023-03-26T21:24:16.371Z,4.74
2023-03-26T21:29:20.309Z,4.62
2023-03-26T21:34:24.614Z,4.50
2023-03-26T21:39:30.355Z,4.38
2023-03-26T21:44:34.818Z,4.27
2023-03-26T21:49:39.358Z,4.17
2023-03-26T21:54:44.953Z,4.05
2023-03-26T21:59:55.001Z,3.92
2023-03-26T22:05:02.310Z,3.85
2023-03-26T22:10:08.876Z,3.83
2023-03-26T22:15:14.208Z,3.78
2023-03-26T22:20:19.579Z,3.74
2023-03-26T22:25:25.339Z,3.71
2023-03-26T22:30:35.335Z,3.66
2023-03-26T22:35:39.209Z,3.63
2023-03-26T22:40:44.106Z,3.58
2023-03-26T22:45:50.843Z,3.57
2023-03-26T22:51:02.984Z,3.40
2023-03-26T22:56:09.426Z,3.49
2023-03-26T23:01:15.542Z,3.45
2023-03-26T23:06:19.088Z,3.43
2023-03-26T23:11:24.320Z,3.40
2023-03-26T23:16:28.236Z,3.36
2023-03-26T23:21:32.580Z,3.30
2023-03-26T23:26:49.577Z,3.31
2023-03-26T23:31:54.780Z,3.31
2023-03-26T23:36:58.457Z,3.34
2023-03-26T23:42:05.943Z,3.33
2023-03-26T23:47:10.401Z,3.32
2023-03-26T23:52:13.826Z,3.31
2023-03-26T23:57:18.867Z,3.29
